Winthrop, MA (02152)

9:53 PM EST on December 25, 2014 (GMT -0500)
Winthrop Beach | Change Station
CLOSE
Current Station
Personal Weather Station
Location: Winthrop, MA
Elevation: 15 ft
Nearby Weather Stations

Elev 15 ft 42.38 °N, 70.97 °W | Updated 28 minutes ago

Clear
Clear
45.3 °F
Feels Like 39 °F
N
13.0
Wind Variable Wind from West
Gusts 18.0 mph

Today
High -- | Low -- °F
--% Chance of Precip.
Yesterday
High -- | Low -- °F
Precip. -- in
7:11 AM 4:16 PM
Waxing Crescent, 21% visible
Pressure 29.90 in
Visibility 10.0 miles
Clouds Clear
Windchill 39 °F
Dew Point 34 °F
Humidity 64%
Rainfall 0.10 in
Snow Depth Not available.
UV 0.0 out of 12
Pollen .10 out of 12
Air Quality Not available.
Flu Activity Not available.
METAR KBOS 260154Z 28011G21KT 10SM CLR 08/M01 A2990 RMK AO2 SLP124 T00781011

More Conditions Fewer Conditions

Pressure 29.90 in
Visibility 10.0 miles
Clouds Clear
Windchill 39 °F
Dew Point 34 °F
Humidity 64%
Rainfall 0.10 in
Snow Depth Not available.
UV 0.0 out of 12
Pollen .10 out of 12
Air Quality Not available.
Flu Activity Not available.
METAR KBOS 260154Z 28011G21KT 10SM CLR 08/M01 A2990 RMK AO2 SLP124 T00781011

More Conditions Fewer Conditions

10-Day Weather Forecast

Almanac

Astronomy

Dec. 25, 2014 Rise Set
Actual Time
Civil Twilight
Nautical Twilight
Astronomical Twilight
Moon
Length of Visible Light
Length of Day
Tomorrow will be .
, % of the Moon is Illuminated

Today's Extremes

State Highs State Lows

Community

WunderPhotos

Upload Photos

1,780,519 photos uploaded!

WunderBlogs® & News

Nearby

Air Quality

  Air Quality AQ Index Pollutant
Not available.

Snow Depth

Station Depth Elevation

Earthquake Activity

City Distance Mag. Time & Date
Minimum magnitude displayed is 2.5.

Coastal Water Temperatures

Place Temperature

Nearby Weather Stations